createdAt,value
2022-12-09T00:00:51.188Z,1001.92
2022-12-09T00:01:51.463Z,1001.92
2022-12-09T00:02:51.710Z,1001.92
2022-12-09T00:03:51.762Z,1001.93
2022-12-09T00:04:51.257Z,1001.94
2022-12-09T00:05:51.304Z,1001.95
2022-12-09T00:06:51.100Z,1001.95
2022-12-09T00:07:51.158Z,1001.94
2022-12-09T00:08:51.301Z,1001.94
2022-12-09T00:09:51.223Z,1001.94
2022-12-09T00:10:51.372Z,1001.94
2022-12-09T00:11:51.306Z,1001.93
2022-12-09T00:12:51.170Z,1001.93
2022-12-09T00:13:51.080Z,1001.93
2022-12-09T00:14:51.229Z,1001.92
2022-12-09T00:15:51.287Z,1001.92
2022-12-09T00:16:51.082Z,1001.91
2022-12-09T00:17:50.982Z,1001.90
2022-12-09T00:18:51.378Z,1001.90
2022-12-09T00:19:51.154Z,1001.90
2022-12-09T00:20:50.998Z,1001.90
2022-12-09T00:21:50.763Z,1001.90
2022-12-09T00:22:51.356Z,1001.90
2022-12-09T00:23:50.767Z,1001.90
2022-12-09T00:24:52.895Z,1001.89
2022-12-09T00:25:50.893Z,1001.89
2022-12-09T00:26:51.332Z,1001.89
2022-12-09T00:27:51.390Z,1001.90
2022-12-09T00:28:51.436Z,1001.91
2022-12-09T00:29:50.897Z,1001.91
2022-12-09T00:30:51.155Z,1001.92
2022-12-09T00:31:50.962Z,1001.93
2022-12-09T00:32:51.203Z,1001.92
2022-12-09T00:33:51.203Z,1001.92
2022-12-09T00:34:50.802Z,1001.92
2022-12-09T00:35:50.920Z,1001.93
2022-12-09T00:36:51.544Z,1001.93
2022-12-09T00:37:50.959Z,1001.93
2022-12-09T00:38:51.532Z,1001.93
2022-12-09T00:39:50.788Z,1001.92
2022-12-09T00:40:50.996Z,1001.91
2022-12-09T00:41:50.746Z,1001.91
2022-12-09T00:42:50.719Z,1001.90
2022-12-09T00:43:50.959Z,1001.90
2022-12-09T00:44:51.109Z,1001.90
2022-12-09T00:45:50.618Z,1001.90
2022-12-09T00:46:50.762Z,1001.90
2022-12-09T00:47:51.093Z,1001.90
2022-12-09T00:48:50.895Z,1001.90
2022-12-09T00:49:50.860Z,1001.90
2022-12-09T00:50:51.031Z,1001.89
2022-12-09T00:51:50.912Z,1001.89
2022-12-09T00:52:50.846Z,1001.88
2022-12-09T00:53:50.535Z,1001.87
2022-12-09T00:54:50.867Z,1001.86
2022-12-09T00:55:50.897Z,1001.85
2022-12-09T00:56:50.695Z,1001.86
2022-12-09T00:57:50.872Z,1001.85
2022-12-09T00:58:50.614Z,1001.86
2022-12-09T00:59:50.524Z,1001.86
2022-12-09T01:00:51.748Z,1001.86
2022-12-09T01:01:50.719Z,1001.86
2022-12-09T01:02:51.005Z,1001.86
2022-12-09T01:03:50.722Z,1001.86
2022-12-09T01:04:50.960Z,1001.85
2022-12-09T01:05:51.000Z,1001.84
2022-12-09T01:06:50.987Z,1001.82
2022-12-09T01:07:50.694Z,1001.82
2022-12-09T01:08:50.822Z,1001.81
2022-12-09T01:09:50.442Z,1001.80
2022-12-09T01:10:50.385Z,1001.79
2022-12-09T01:11:50.620Z,1001.79
2022-12-09T01:12:50.770Z,1001.78
2022-12-09T01:13:50.847Z,1001.77
2022-12-09T01:14:51.009Z,1001.78
2022-12-09T01:15:50.732Z,1001.78
2022-12-09T01:16:50.521Z,1001.77
2022-12-09T01:17:50.771Z,1001.77
2022-12-09T01:18:50.352Z,1001.77
2022-12-09T01:19:50.721Z,1001.77
2022-12-09T01:20:50.331Z,1001.78
2022-12-09T01:21:50.388Z,1001.79
2022-12-09T01:22:50.466Z,1001.80
2022-12-09T01:23:50.334Z,1001.81
2022-12-09T01:24:50.420Z,1001.82
2022-12-09T01:25:50.513Z,1001.84
2022-12-09T01:26:50.726Z,1001.85
2022-12-09T01:29:21.359Z,1001.88
2022-12-09T01:31:18.649Z,1001.90
2022-12-09T01:32:19.813Z,1001.89
2022-12-09T01:33:19.216Z,1001.90
2022-12-09T01:34:19.335Z,1001.90
2022-12-09T01:36:46.225Z,1001.92
2022-12-09T01:37:46.768Z,1001.93
2022-12-09T01:38:45.696Z,1001.93
2022-12-09T01:39:47.174Z,1001.93
2022-12-09T01:40:45.915Z,1001.94
2022-12-09T01:41:45.699Z,1001.94
2022-12-09T01:42:47.467Z,1001.94
2022-12-09T01:45:43.726Z,1001.94
2022-12-09T01:46:46.322Z,1001.94
2022-12-09T01:47:44.489Z,1001.93
2022-12-09T01:48:44.738Z,1001.92
2022-12-09T01:49:44.613Z,1001.91
2022-12-09T01:50:44.615Z,1001.90
2022-12-09T01:51:44.146Z,1001.90
2022-12-09T01:52:46.976Z,1001.90
2022-12-09T01:55:06.980Z,1001.86
2022-12-09T01:56:07.678Z,1001.85
2022-12-09T01:57:07.774Z,1001.83
2022-12-09T01:58:08.238Z,1001.82
2022-12-09T01:59:08.246Z,1001.81
2022-12-09T02:00:09.568Z,1001.81
2022-12-09T02:01:08.521Z,1001.81
2022-12-09T02:02:07.480Z,1001.81
2022-12-09T02:03:08.121Z,1001.81
2022-12-09T02:04:07.211Z,1001.80
2022-12-09T02:05:07.446Z,1001.81
2022-12-09T02:06:07.554Z,1001.81
2022-12-09T02:07:07.166Z,1001.81
2022-12-09T02:08:07.701Z,1001.81
2022-12-09T02:09:07.394Z,1001.81
2022-12-09T02:10:07.683Z,1001.81
2022-12-09T02:11:07.867Z,1001.81
2022-12-09T02:12:08.198Z,1001.82
2022-12-09T02:13:07.074Z,1001.83
2022-12-09T02:14:07.680Z,1001.84
2022-12-09T02:15:07.512Z,1001.86
2022-12-09T02:16:07.119Z,1001.86
2022-12-09T02:17:07.385Z,1001.86
2022-12-09T02:18:07.662Z,1001.87
2022-12-09T02:19:07.576Z,1001.87
2022-12-09T02:20:07.774Z,1001.87
2022-12-09T02:21:07.752Z,1001.86
2022-12-09T02:22:09.198Z,1001.85
2022-12-09T02:23:08.230Z,1001.85
2022-12-09T02:24:07.562Z,1001.83
2022-12-09T02:25:22.094Z,1001.83
2022-12-09T02:26:07.383Z,1001.82
2022-12-09T02:27:07.298Z,1001.81
2022-12-09T02:28:07.386Z,1001.80
2022-12-09T02:29:07.391Z,1001.80
2022-12-09T02:30:07.103Z,1001.80
2022-12-09T02:31:08.147Z,1001.79
2022-12-09T02:32:07.438Z,1001.78
2022-12-09T02:33:09.922Z,1001.77
2022-12-09T02:34:07.972Z,1001.76
2022-12-09T02:35:07.275Z,1001.75
2022-12-09T02:36:07.092Z,1001.75
2022-12-09T02:37:07.026Z,1001.74
2022-12-09T02:38:07.348Z,1001.74
2022-12-09T02:39:07.370Z,1001.73
2022-12-09T02:40:08.349Z,1001.73
2022-12-09T02:41:07.032Z,1001.72
2022-12-09T02:42:07.863Z,1001.72
2022-12-09T02:43:07.298Z,1001.71
2022-12-09T02:44:07.430Z,1001.71
2022-12-09T02:45:06.979Z,1001.71
2022-12-09T02:46:07.253Z,1001.71
2022-12-09T02:47:07.286Z,1001.70
2022-12-09T02:48:07.046Z,1001.70
2022-12-09T02:49:08.031Z,1001.71
2022-12-09T02:50:07.252Z,1001.71
2022-12-09T02:51:07.365Z,1001.72
2022-12-09T02:52:09.265Z,1001.72
2022-12-09T02:53:07.754Z,1001.72
2022-12-09T02:54:08.804Z,1001.72
2022-12-09T02:55:07.707Z,1001.72
2022-12-09T02:56:06.947Z,1001.71
2022-12-09T02:57:07.108Z,1001.70
2022-12-09T02:58:06.732Z,1001.70
2022-12-09T02:59:07.130Z,1001.69
2022-12-09T03:00:07.168Z,1001.69
2022-12-09T03:01:07.345Z,1001.68
2022-12-09T03:02:07.386Z,1001.66
2022-12-09T03:03:07.540Z,1001.64
2022-12-09T03:04:08.367Z,1001.63
2022-12-09T03:05:08.700Z,1001.62
2022-12-09T03:06:07.236Z,1001.61
2022-12-09T03:07:07.376Z,1001.61
2022-12-09T03:08:06.470Z,1001.61
2022-12-09T03:09:06.413Z,1001.61
2022-12-09T03:10:06.633Z,1001.61
2022-12-09T03:11:06.371Z,1001.60
2022-12-09T03:12:06.442Z,1001.59
2022-12-09T03:13:06.348Z,1001.58
2022-12-09T03:14:06.287Z,1001.57
2022-12-09T03:15:07.951Z,1001.57
2022-12-09T03:16:45.544Z,1001.56
2022-12-09T03:18:45.211Z,1001.53
2022-12-09T03:19:58.328Z,1001.53
2022-12-09T03:20:47.926Z,1001.53
2022-12-09T03:21:45.427Z,1001.53
2022-12-09T03:22:46.396Z,1001.52
2022-12-09T03:23:45.576Z,1001.51
2022-12-09T03:24:45.596Z,1001.49
2022-12-09T03:25:45.864Z,1001.48
2022-12-09T03:26:46.227Z,1001.46
2022-12-09T03:27:46.158Z,1001.45
2022-12-09T03:28:45.810Z,1001.45
2022-12-09T03:29:45.475Z,1001.44
2022-12-09T03:30:48.314Z,1001.44
2022-12-09T03:31:45.817Z,1001.43
2022-12-09T03:32:45.952Z,1001.43
2022-12-09T03:33:49.012Z,1001.43
2022-12-09T03:34:45.506Z,1001.44
2022-12-09T03:35:48.525Z,1001.44
2022-12-09T03:36:45.994Z,1001.43
2022-12-09T03:37:45.320Z,1001.43
2022-12-09T03:38:45.567Z,1001.42
2022-12-09T03:39:45.674Z,1001.42
2022-12-09T03:40:45.251Z,1001.41
2022-12-09T03:41:45.831Z,1001.40
2022-12-09T03:42:46.169Z,1001.40
2022-12-09T03:43:45.195Z,1001.41
2022-12-09T03:44:45.218Z,1001.42
2022-12-09T03:45:46.381Z,1001.42
2022-12-09T03:46:47.021Z,1001.42
2022-12-09T03:47:45.296Z,1001.42
2022-12-09T03:48:45.328Z,1001.42
2022-12-09T03:49:45.319Z,1001.41
2022-12-09T03:50:45.174Z,1001.40
2022-12-09T03:51:45.146Z,1001.40
2022-12-09T03:52:45.271Z,1001.38
2022-12-09T03:53:46.895Z,1001.36
2022-12-09T03:54:45.425Z,1001.35
2022-12-09T03:55:45.351Z,1001.34
2022-12-09T03:56:46.363Z,1001.35
2022-12-09T03:57:45.327Z,1001.35
2022-12-09T03:58:47.589Z,1001.36
2022-12-09T03:59:45.037Z,1001.37
2022-12-09T04:00:45.343Z,1001.37
2022-12-09T04:01:45.431Z,1001.37
2022-12-09T04:02:45.387Z,1001.36
2022-12-09T04:03:46.448Z,1001.36
2022-12-09T04:04:46.691Z,1001.35
2022-12-09T04:05:45.699Z,1001.34
2022-12-09T04:06:45.440Z,1001.33
2022-12-09T04:07:48.140Z,1001.32
2022-12-09T04:08:45.746Z,1001.31
2022-12-09T04:09:45.495Z,1001.30
2022-12-09T04:10:45.326Z,1001.30
2022-12-09T04:11:54.995Z,1001.29
2022-12-09T04:12:44.884Z,1001.29
2022-12-09T04:13:45.678Z,1001.28
2022-12-09T04:14:47.254Z,1001.27
2022-12-09T04:16:17.885Z,1001.27
2022-12-09T04:16:45.315Z,1001.27
2022-12-09T04:17:45.361Z,1001.28
2022-12-09T04:18:49.115Z,1001.28
2022-12-09T04:19:45.077Z,1001.28
2022-12-09T04:20:45.038Z,1001.28
2022-12-09T04:21:44.896Z,1001.28
2022-12-09T04:22:45.645Z,1001.28
2022-12-09T04:23:46.232Z,1001.26
2022-12-09T04:24:44.771Z,1001.26
2022-12-09T04:25:46.670Z,1001.25
2022-12-09T04:27:24.538Z,1001.24
2022-12-09T04:27:44.929Z,1001.24
2022-12-09T04:29:06.331Z,1001.23
2022-12-09T04:29:44.841Z,1001.21
2022-12-09T04:30:44.986Z,1001.20
2022-12-09T04:31:46.403Z,1001.19
2022-12-09T04:32:45.126Z,1001.18
2022-12-09T04:33:45.038Z,1001.17
2022-12-09T04:34:44.714Z,1001.15
2022-12-09T04:35:45.563Z,1001.13
2022-12-09T04:36:47.219Z,1001.11
2022-12-09T04:37:45.958Z,1001.11
2022-12-09T04:38:44.866Z,1001.10
2022-12-09T04:39:45.663Z,1001.09
2022-12-09T04:40:49.667Z,1001.08
2022-12-09T04:41:45.283Z,1001.08
2022-12-09T04:44:07.169Z,1001.07
2022-12-09T04:45:07.756Z,1001.07
2022-12-09T04:46:08.128Z,1001.08
2022-12-09T04:47:08.255Z,1001.08
2022-12-09T04:48:08.688Z,1001.07
2022-12-09T04:49:07.708Z,1001.06
2022-12-09T04:50:07.874Z,1001.05
2022-12-09T04:51:09.729Z,1001.05
2022-12-09T04:52:08.021Z,1001.05
2022-12-09T04:53:09.168Z,1001.04
2022-12-09T04:54:07.687Z,1001.05
2022-12-09T04:55:07.828Z,1001.06
2022-12-09T04:56:17.725Z,1001.06
2022-12-09T04:57:07.846Z,1001.06
2022-12-09T04:58:08.419Z,1001.07
2022-12-09T04:59:08.600Z,1001.08
2022-12-09T05:00:08.805Z,1001.08
2022-12-09T05:01:08.993Z,1001.08
2022-12-09T05:02:09.165Z,1001.08
2022-12-09T05:03:07.507Z,1001.07
2022-12-09T05:04:07.922Z,1001.06
2022-12-09T05:05:07.747Z,1001.06
2022-12-09T05:06:08.673Z,1001.06
2022-12-09T05:07:09.637Z,1001.06
2022-12-09T05:08:07.583Z,1001.07
2022-12-09T05:10:27.989Z,1001.07
2022-12-09T05:11:28.978Z,1001.07
2022-12-09T05:12:28.170Z,1001.07
2022-12-09T05:13:28.605Z,1001.07
2022-12-09T05:14:28.558Z,1001.06
2022-12-09T05:15:28.951Z,1001.07
2022-12-09T05:16:31.821Z,1001.07
2022-12-09T05:17:33.705Z,1001.09
2022-12-09T05:18:29.891Z,1001.10
2022-12-09T05:19:28.620Z,1001.10
2022-12-09T05:20:44.993Z,1001.10
2022-12-09T05:21:28.694Z,1001.09
2022-12-09T05:22:28.259Z,1001.09
2022-12-09T05:23:28.734Z,1001.07
2022-12-09T05:24:28.464Z,1001.06
2022-12-09T05:25:34.004Z,1001.04
2022-12-09T05:26:28.314Z,1001.03
2022-12-09T05:27:28.812Z,1001.03
2022-12-09T05:28:28.088Z,1001.04
2022-12-09T05:29:28.264Z,1001.05
2022-12-09T05:30:49.756Z,1001.06
2022-12-09T05:31:40.427Z,1001.07
2022-12-09T05:32:28.137Z,1001.09
2022-12-09T05:33:28.553Z,1001.10
2022-12-09T05:34:28.379Z,1001.09
2022-12-09T05:35:30.507Z,1001.10
2022-12-09T05:36:28.526Z,1001.10
2022-12-09T05:37:29.206Z,1001.09
2022-12-09T05:38:28.221Z,1001.10
2022-12-09T05:39:28.606Z,1001.09
2022-12-09T05:40:27.669Z,1001.09
2022-12-09T05:41:27.921Z,1001.08
2022-12-09T05:42:28.190Z,1001.07
2022-12-09T05:43:28.270Z,1001.07
2022-12-09T05:44:29.083Z,1001.07
2022-12-09T05:45:28.020Z,1001.07
2022-12-09T05:46:28.610Z,1001.08
2022-12-09T05:47:28.270Z,1001.08
2022-12-09T05:48:29.478Z,1001.09
2022-12-09T05:49:28.174Z,1001.09
2022-12-09T05:50:28.183Z,1001.10
2022-12-09T05:51:28.760Z,1001.10
2022-12-09T05:52:29.110Z,1001.09
2022-12-09T05:53:31.613Z,1001.09
2022-12-09T05:54:28.250Z,1001.09
2022-12-09T05:55:27.743Z,1001.10
2022-12-09T05:56:28.418Z,1001.10
2022-12-09T05:57:28.285Z,1001.09
2022-12-09T05:58:28.929Z,1001.10
2022-12-09T05:59:30.608Z,1001.10
2022-12-09T06:00:28.039Z,1001.11
2022-12-09T06:01:30.177Z,1001.13
2022-12-09T06:02:28.840Z,1001.13
2022-12-09T06:03:28.200Z,1001.13
2022-12-09T06:04:28.701Z,1001.13
2022-12-09T06:05:29.147Z,1001.14
2022-12-09T06:06:28.135Z,1001.15
2022-12-09T06:07:27.784Z,1001.16
2022-12-09T06:08:28.286Z,1001.16
2022-12-09T06:09:29.239Z,1001.16
2022-12-09T06:12:46.637Z,1001.11
2022-12-09T06:13:55.470Z,1001.10
2022-12-09T06:14:45.524Z,1001.09
2022-12-09T06:15:44.820Z,1001.09
2022-12-09T06:16:44.779Z,1001.08
2022-12-09T06:17:45.380Z,1001.07
2022-12-09T06:18:54.637Z,1001.06
2022-12-09T06:19:45.352Z,1001.05
2022-12-09T06:22:53.504Z,1001.04
2022-12-09T06:23:48.159Z,1001.04
2022-12-09T06:24:51.069Z,1001.04
2022-12-09T06:25:48.367Z,1001.03
2022-12-09T06:26:48.310Z,1001.03
2022-12-09T06:27:48.004Z,1001.03
2022-12-09T06:28:48.152Z,1001.02
2022-12-09T06:29:48.976Z,1001.04
2022-12-09T06:30:49.523Z,1001.04
2022-12-09T06:31:54.286Z,1001.04
2022-12-09T06:32:48.624Z,1001.04
2022-12-09T06:33:57.281Z,1001.03
2022-12-09T06:34:48.752Z,1001.03
2022-12-09T06:35:47.706Z,1001.03
2022-12-09T06:36:48.074Z,1001.03
2022-12-09T06:39:11.229Z,1001.03
2022-12-09T06:40:11.807Z,1001.03
2022-12-09T06:41:11.087Z,1001.04
2022-12-09T06:42:15.031Z,1001.04
2022-12-09T06:43:11.210Z,1001.05
2022-12-09T06:44:14.310Z,1001.05
2022-12-09T06:45:10.825Z,1001.05
2022-12-09T06:46:12.097Z,1001.05
2022-12-09T06:47:11.441Z,1001.06
2022-12-09T06:48:11.148Z,1001.06
2022-12-09T06:49:12.541Z,1001.05
2022-12-09T06:50:29.411Z,1001.04
2022-12-09T06:51:12.131Z,1001.02
2022-12-09T06:52:21.657Z,1001.01
2022-12-09T06:53:10.825Z,1001.01
2022-12-09T06:54:10.467Z,1001.01
2022-12-09T06:55:10.607Z,1001.01
2022-12-09T06:56:12.530Z,1001.01
2022-12-09T06:57:10.361Z,1001.02
2022-12-09T06:58:10.557Z,1001.04
2022-12-09T06:59:10.179Z,1001.05
2022-12-09T07:00:10.569Z,1001.06
2022-12-09T07:01:10.298Z,1001.08
2022-12-09T07:02:10.279Z,1001.10
2022-12-09T07:03:10.361Z,1001.12
2022-12-09T07:04:10.527Z,1001.13
2022-12-09T07:05:11.071Z,1001.14
2022-12-09T07:06:10.250Z,1001.16
2022-12-09T07:07:10.482Z,1001.18
2022-12-09T07:08:10.422Z,1001.19
2022-12-09T07:09:10.547Z,1001.21
2022-12-09T07:10:10.514Z,1001.21
2022-12-09T07:11:10.361Z,1001.22
2022-12-09T07:12:10.578Z,1001.23
2022-12-09T07:13:10.361Z,1001.24
2022-12-09T07:14:10.139Z,1001.25
2022-12-09T07:15:10.193Z,1001.27
2022-12-09T07:16:10.303Z,1001.28
2022-12-09T07:17:10.078Z,1001.29
2022-12-09T07:18:10.241Z,1001.31
2022-12-09T07:19:10.383Z,1001.32
2022-12-09T07:20:10.316Z,1001.34
2022-12-09T07:21:10.074Z,1001.36
2022-12-09T07:22:10.245Z,1001.37
2022-12-09T07:23:10.157Z,1001.39
2022-12-09T07:24:10.006Z,1001.40
2022-12-09T07:25:10.276Z,1001.41
2022-12-09T07:26:10.157Z,1001.41
2022-12-09T07:27:14.326Z,1001.40
2022-12-09T07:28:10.286Z,1001.40
2022-12-09T07:29:10.052Z,1001.39
2022-12-09T07:30:10.250Z,1001.39
2022-12-09T07:31:10.304Z,1001.38
2022-12-09T07:32:10.000Z,1001.38
2022-12-09T07:33:10.008Z,1001.39
2022-12-09T07:34:10.230Z,1001.40
2022-12-09T07:35:10.334Z,1001.41
2022-12-09T07:36:09.712Z,1001.41
2022-12-09T07:37:10.027Z,1001.42
2022-12-09T07:38:09.790Z,1001.43
2022-12-09T07:39:09.730Z,1001.42
2022-12-09T07:40:09.873Z,1001.42
2022-12-09T07:41:10.077Z,1001.42
2022-12-09T07:42:10.075Z,1001.41
2022-12-09T07:43:10.049Z,1001.40
2022-12-09T07:44:09.977Z,1001.41
2022-12-09T07:45:10.430Z,1001.41
2022-12-09T07:46:09.980Z,1001.41
2022-12-09T07:47:10.100Z,1001.41
2022-12-09T07:48:09.733Z,1001.40
2022-12-09T07:49:10.118Z,1001.39
2022-12-09T07:50:09.796Z,1001.38
2022-12-09T07:51:09.699Z,1001.38
2022-12-09T07:52:09.704Z,1001.39
2022-12-09T07:53:09.926Z,1001.41
2022-12-09T07:54:09.918Z,1001.43
2022-12-09T07:55:10.086Z,1001.45
2022-12-09T07:56:09.928Z,1001.47
2022-12-09T07:57:10.040Z,1001.50
2022-12-09T07:58:09.541Z,1001.52
2022-12-09T07:59:09.721Z,1001.53
2022-12-09T08:00:09.512Z,1001.53
2022-12-09T08:01:09.589Z,1001.53
2022-12-09T08:02:09.565Z,1001.52
2022-12-09T08:03:09.592Z,1001.52
2022-12-09T08:04:10.045Z,1001.52
2022-12-09T08:05:10.402Z,1001.51
2022-12-09T08:06:10.082Z,1001.52
2022-12-09T08:07:09.886Z,1001.53
2022-12-09T08:08:09.806Z,1001.53
2022-12-09T08:09:09.693Z,1001.53
2022-12-09T08:10:09.515Z,1001.53
2022-12-09T08:11:09.461Z,1001.53
2022-12-09T08:12:09.507Z,1001.53
2022-12-09T08:13:09.711Z,1001.54
2022-12-09T08:14:12.643Z,1001.55
2022-12-09T08:15:09.736Z,1001.56
2022-12-09T08:16:09.626Z,1001.56
2022-12-09T08:17:09.668Z,1001.57
2022-12-09T08:18:09.386Z,1001.57
2022-12-09T08:19:10.113Z,1001.57
2022-12-09T08:20:09.987Z,1001.57
2022-12-09T08:21:09.648Z,1001.58
2022-12-09T08:22:09.397Z,1001.58
2022-12-09T08:23:09.688Z,1001.59
2022-12-09T08:24:09.603Z,1001.60
2022-12-09T08:25:09.878Z,1001.62
2022-12-09T08:26:09.581Z,1001.64
2022-12-09T08:27:09.346Z,1001.64
2022-12-09T08:28:09.512Z,1001.65
2022-12-09T08:29:09.789Z,1001.65
2022-12-09T08:30:09.695Z,1001.66
2022-12-09T08:31:09.563Z,1001.66
2022-12-09T08:32:09.717Z,1001.66
2022-12-09T08:33:09.500Z,1001.67
2022-12-09T08:34:09.733Z,1001.67
2022-12-09T08:35:09.621Z,1001.66
2022-12-09T08:36:09.587Z,1001.66
2022-12-09T08:37:09.263Z,1001.65
2022-12-09T08:38:09.157Z,1001.64
2022-12-09T08:39:09.342Z,1001.64
2022-12-09T08:40:09.589Z,1001.65
2022-12-09T08:41:09.321Z,1001.65
2022-12-09T08:42:09.231Z,1001.65
2022-12-09T08:43:09.589Z,1001.66
2022-12-09T08:44:09.242Z,1001.66
2022-12-09T08:45:09.322Z,1001.66
2022-12-09T08:46:09.547Z,1001.65
2022-12-09T08:47:09.368Z,1001.65
2022-12-09T08:48:09.558Z,1001.65
2022-12-09T08:49:09.333Z,1001.65
2022-12-09T08:50:09.862Z,1001.65
2022-12-09T08:51:09.222Z,1001.64
2022-12-09T08:52:09.478Z,1001.64
2022-12-09T08:53:09.315Z,1001.63
2022-12-09T08:54:09.254Z,1001.63
2022-12-09T08:55:09.425Z,1001.63
2022-12-09T08:56:09.423Z,1001.62
2022-12-09T08:57:08.968Z,1001.62
2022-12-09T08:58:09.182Z,1001.63
2022-12-09T08:59:09.041Z,1001.63
2022-12-09T09:00:09.502Z,1001.64
2022-12-09T09:01:09.117Z,1001.64
2022-12-09T09:02:09.256Z,1001.63
2022-12-09T09:03:09.429Z,1001.63
2022-12-09T09:04:09.557Z,1001.62
2022-12-09T09:05:09.450Z,1001.63
2022-12-09T09:06:10.742Z,1001.64
2022-12-09T09:07:09.149Z,1001.65
2022-12-09T09:08:09.020Z,1001.65
2022-12-09T09:09:09.069Z,1001.65
2022-12-09T09:10:09.270Z,1001.66
2022-12-09T09:11:09.362Z,1001.67
2022-12-09T09:12:08.886Z,1001.67
2022-12-09T09:13:08.993Z,1001.66
2022-12-09T09:14:09.225Z,1001.67
2022-12-09T09:15:09.260Z,1001.67
2022-12-09T09:16:09.361Z,1001.68
2022-12-09T09:17:09.270Z,1001.69
2022-12-09T09:18:09.159Z,1001.69
2022-12-09T09:19:08.895Z,1001.70
2022-12-09T09:20:09.468Z,1001.71
2022-12-09T09:21:09.102Z,1001.72
2022-12-09T09:22:08.716Z,1001.73
2022-12-09T09:23:08.794Z,1001.75
2022-12-09T09:24:08.825Z,1001.77
2022-12-09T09:25:09.485Z,1001.78
2022-12-09T09:26:08.933Z,1001.79
2022-12-09T09:27:08.951Z,1001.79
2022-12-09T09:28:08.749Z,1001.79
2022-12-09T09:29:09.842Z,1001.80
2022-12-09T09:30:09.178Z,1001.81
2022-12-09T09:31:09.253Z,1001.80
2022-12-09T09:32:09.104Z,1001.79
2022-12-09T09:33:08.828Z,1001.79
2022-12-09T09:34:09.093Z,1001.78
2022-12-09T09:35:08.752Z,1001.77
2022-12-09T09:36:10.743Z,1001.76
2022-12-09T09:37:08.839Z,1001.75
2022-12-09T09:38:08.776Z,1001.75
2022-12-09T09:39:08.608Z,1001.75
2022-12-09T09:40:09.141Z,1001.75
2022-12-09T09:41:08.861Z,1001.76
2022-12-09T09:42:09.631Z,1001.76
2022-12-09T09:43:09.020Z,1001.77
2022-12-09T09:44:08.475Z,1001.77
2022-12-09T09:45:08.713Z,1001.76
2022-12-09T09:46:08.664Z,1001.76
2022-12-09T09:47:08.588Z,1001.76
2022-12-09T09:48:08.835Z,1001.76
2022-12-09T09:49:08.581Z,1001.76
2022-12-09T09:50:09.185Z,1001.77
2022-12-09T09:51:09.226Z,1001.77
2022-12-09T09:52:08.688Z,1001.76
2022-12-09T09:53:08.502Z,1001.75
2022-12-09T09:54:09.228Z,1001.75
2022-12-09T09:55:08.416Z,1001.75
2022-12-09T09:56:08.425Z,1001.73
2022-12-09T09:57:08.484Z,1001.72
2022-12-09T09:58:08.585Z,1001.71
2022-12-09T09:59:08.784Z,1001.70
2022-12-09T10:00:10.124Z,1001.68
2022-12-09T10:01:08.688Z,1001.67
2022-12-09T10:02:08.746Z,1001.66
2022-12-09T10:03:08.996Z,1001.65
2022-12-09T10:04:08.709Z,1001.64
2022-12-09T10:05:09.003Z,1001.64
2022-12-09T10:06:08.833Z,1001.62
2022-12-09T10:07:08.797Z,1001.60
2022-12-09T10:08:08.472Z,1001.59
2022-12-09T10:09:08.608Z,1001.58
2022-12-09T10:10:09.089Z,1001.58
2022-12-09T10:11:08.936Z,1001.58
2022-12-09T10:12:08.681Z,1001.58
2022-12-09T10:13:14.366Z,1001.57
2022-12-09T10:14:08.377Z,1001.56
2022-12-09T10:15:08.330Z,1001.55
2022-12-09T10:16:08.327Z,1001.55
2022-12-09T10:17:08.613Z,1001.55
2022-12-09T10:18:08.166Z,1001.55
2022-12-09T10:19:09.619Z,1001.54
2022-12-09T10:20:08.799Z,1001.55
2022-12-09T10:21:08.291Z,1001.54
2022-12-09T10:22:08.175Z,1001.53
2022-12-09T10:23:08.709Z,1001.53
2022-12-09T10:24:08.141Z,1001.52
2022-12-09T10:25:08.173Z,1001.51
2022-12-09T10:26:08.198Z,1001.50
2022-12-09T10:27:08.311Z,1001.48
2022-12-09T10:28:08.069Z,1001.47
2022-12-09T10:29:08.322Z,1001.46
2022-12-09T10:30:08.956Z,1001.46
2022-12-09T10:31:08.076Z,1001.46
2022-12-09T10:32:08.196Z,1001.47
2022-12-09T10:33:08.212Z,1001.47
2022-12-09T10:34:08.214Z,1001.48
2022-12-09T10:35:08.165Z,1001.48
2022-12-09T10:36:07.927Z,1001.48
2022-12-09T10:37:08.407Z,1001.47
2022-12-09T10:38:08.267Z,1001.47
2022-12-09T10:39:07.993Z,1001.47
2022-12-09T10:40:08.383Z,1001.48
2022-12-09T10:41:08.033Z,1001.50
2022-12-09T10:42:08.324Z,1001.50
2022-12-09T10:43:08.093Z,1001.50
2022-12-09T10:44:07.871Z,1001.50
2022-12-09T10:45:07.908Z,1001.50
2022-12-09T10:46:17.872Z,1001.50
2022-12-09T10:47:08.051Z,1001.50
2022-12-09T10:48:07.984Z,1001.49
2022-12-09T10:49:08.202Z,1001.47
2022-12-09T10:50:08.553Z,1001.46
2022-12-09T10:51:07.999Z,1001.46
2022-12-09T10:52:07.882Z,1001.46
2022-12-09T10:53:07.826Z,1001.46
2022-12-09T10:54:07.770Z,1001.45
2022-12-09T10:55:08.052Z,1001.44
2022-12-09T10:56:07.884Z,1001.42
2022-12-09T10:57:08.180Z,1001.41
2022-12-09T10:58:07.706Z,1001.40
2022-12-09T10:59:08.040Z,1001.41
2022-12-09T11:00:08.442Z,1001.42
2022-12-09T11:01:07.882Z,1001.42
2022-12-09T11:02:07.993Z,1001.43
2022-12-09T11:03:07.788Z,1001.43
2022-12-09T11:04:08.072Z,1001.43
2022-12-09T11:05:07.987Z,1001.43
2022-12-09T11:06:07.858Z,1001.41
2022-12-09T11:07:08.033Z,1001.41
2022-12-09T11:08:08.063Z,1001.39
2022-12-09T11:09:08.232Z,1001.38
2022-12-09T11:10:08.793Z,1001.37
2022-12-09T11:11:07.736Z,1001.35
2022-12-09T11:12:07.756Z,1001.33
2022-12-09T11:13:08.071Z,1001.32
2022-12-09T11:14:07.638Z,1001.31
2022-12-09T11:15:07.596Z,1001.30
2022-12-09T11:16:08.133Z,1001.31
2022-12-09T11:17:07.989Z,1001.31
2022-12-09T11:18:07.894Z,1001.31
2022-12-09T11:19:07.661Z,1001.31
2022-12-09T11:20:08.597Z,1001.31
2022-12-09T11:21:07.936Z,1001.31
2022-12-09T11:22:07.779Z,1001.31
2022-12-09T11:23:07.652Z,1001.30
2022-12-09T11:24:07.871Z,1001.29
2022-12-09T11:25:07.785Z,1001.29
2022-12-09T11:26:07.732Z,1001.28
2022-12-09T11:27:07.752Z,1001.28
2022-12-09T11:28:07.485Z,1001.27
2022-12-09T11:29:07.555Z,1001.26
2022-12-09T11:30:12.728Z,1001.26
2022-12-09T11:32:07.436Z,1001.26
2022-12-09T11:33:07.888Z,1001.26
2022-12-09T11:34:07.478Z,1001.25
2022-12-09T11:35:07.752Z,1001.24
2022-12-09T11:37:07.306Z,1001.24
2022-12-09T11:38:07.323Z,1001.25
2022-12-09T11:39:07.260Z,1001.24
2022-12-09T11:40:07.489Z,1001.23
2022-12-09T11:41:07.278Z,1001.21
2022-12-09T11:42:12.944Z,1001.19
2022-12-09T11:43:07.315Z,1001.18
2022-12-09T11:44:07.251Z,1001.18
2022-12-09T11:45:07.246Z,1001.19
2022-12-09T11:46:07.340Z,1001.19
2022-12-09T11:47:07.284Z,1001.20
2022-12-09T11:48:27.546Z,1001.19
2022-12-09T11:49:07.209Z,1001.18
2022-12-09T11:50:07.622Z,1001.17
2022-12-09T11:51:07.104Z,1001.16
2022-12-09T11:52:07.145Z,1001.15
2022-12-09T11:53:07.155Z,1001.14
2022-12-09T11:54:07.165Z,1001.13
2022-12-09T11:55:07.121Z,1001.12
2022-12-09T11:56:07.105Z,1001.10
2022-12-09T11:57:07.147Z,1001.09
2022-12-09T11:58:07.082Z,1001.08
2022-12-09T11:59:07.095Z,1001.09
2022-12-09T12:00:07.483Z,1001.09
2022-12-09T12:01:07.047Z,1001.08
2022-12-09T12:02:07.107Z,1001.09
2022-12-09T12:03:07.140Z,1001.09
2022-12-09T12:04:07.127Z,1001.09
2022-12-09T12:05:06.969Z,1001.10
2022-12-09T12:06:07.000Z,1001.10
2022-12-09T12:07:07.057Z,1001.10
2022-12-09T12:08:07.106Z,1001.09
2022-12-09T12:09:06.994Z,1001.08
2022-12-09T12:10:07.382Z,1001.08
2022-12-09T12:11:11.863Z,1001.09
2022-12-09T12:12:07.018Z,1001.08
2022-12-09T12:13:06.927Z,1001.08
2022-12-09T12:14:06.931Z,1001.06
2022-12-09T12:15:06.947Z,1001.04
2022-12-09T12:16:07.009Z,1001.02
2022-12-09T12:17:06.963Z,1001.02
2022-12-09T12:18:06.898Z,1001.01
2022-12-09T12:19:06.957Z,1001.01
2022-12-09T12:20:07.142Z,1001.02
2022-12-09T12:21:06.999Z,1001.03
2022-12-09T12:22:06.978Z,1001.04
2022-12-09T12:23:06.848Z,1001.05
2022-12-09T12:24:06.788Z,1001.05
2022-12-09T12:25:09.883Z,1001.04